Time;durP1;ratioP1;P1;durP2;ratioP2;P2;SDS_P1;SDS_P2;PMS_P1;PMS_P2;Temp;Humidity;BMP_temperature;BMP_pressure;BME280_temperature;BME280_humidity;BME280_pressure;Samples;Min_cycle;Max_cycle;Signal;HPM_P1;HPM_P2
2023/09/15 00:00:57;;;;;;;1.53;1.43;;;;;24.60;100936.00;;;;2563079;22;20677;-62
2023/09/15 00:01:57;;;;;;;2.23;1.63;;;;;24.60;100945.00;;;;2577131;23;20498;-61
2023/09/15 00:02:58;;;;;;;2.07;1.87;;;;;24.60;100950.00;;;;2565107;23;20192;-62
2023/09/15 00:03:59;;;;;;;2.33;1.90;;;;;24.60;100941.00;;;;2562139;23;20193;-62
2023/09/15 00:05:01;;;;;;;2.00;1.80;;;;;24.60;100948.00;;;;2564940;23;20196;-62
2023/09/15 00:06:01;;;;;;;2.37;2.17;;;;;24.60;100941.00;;;;2561329;23;20501;-61
2023/09/15 00:07:03;;;;;;;2.17;1.80;;;;;24.60;100943.00;;;;2560830;23;20193;-62
2023/09/15 00:08:04;;;;;;;2.23;2.03;;;;;24.60;100944.00;;;;2552811;23;20244;-61
2023/09/15 00:09:06;;;;;;;2.00;1.80;;;;;24.60;100947.00;;;;2565428;23;20428;-62
2023/09/15 00:10:07;;;;;;;2.20;1.95;;;;;24.60;100957.00;;;;2559961;23;20477;-61
2023/09/15 00:11:14;;;;;;;2.57;1.90;;;;;24.60;100946.00;;;;2549461;23;20662;-62
2023/09/15 00:12:15;;;;;;;2.25;1.80;;;;;24.60;100943.00;;;;2562187;23;20259;-61
2023/09/15 00:13:15;;;;;;;3.13;1.73;;;;;24.60;100945.00;;;;2578474;22;20204;-61
2023/09/15 00:14:16;;;;;;;2.90;2.13;;;;;24.60;100955.00;;;;2591074;22;20263;-62
2023/09/15 00:15:17;;;;;;;2.20;2.00;;;;;24.60;100944.00;;;;2591872;22;20195;-62
2023/09/15 00:16:17;;;;;;;2.00;1.60;;;;;24.60;100946.00;;;;2573677;22;20703;-61
2023/09/15 00:17:17;;;;;;;2.13;1.93;;;;;24.60;100940.00;;;;2585294;22;20513;-62
2023/09/15 00:18:18;;;;;;;2.10;1.90;;;;;24.60;100936.00;;;;2587485;22;20191;-62
2023/09/15 00:19:20;;;;;;;2.10;1.90;;;;;24.50;100944.00;;;;2573541;23;20203;-62
2023/09/15 00:20:20;;;;;;;2.23;2.03;;;;;24.60;100939.00;;;;2572556;22;20192;-62
2023/09/15 00:21:20;;;;;;;2.00;1.60;;;;;24.60;100942.00;;;;2562539;23;20534;-62
2023/09/15 00:22:21;;;;;;;2.07;1.87;;;;;24.60;100933.00;;;;2552121;23;20301;-62
2023/09/15 00:23:22;;;;;;;2.40;2.20;;;;;24.60;101015.00;;;;2565449;23;20280;-62
2023/09/15 00:24:22;;;;;;;2.10;1.60;;;;;24.60;100938.00;;;;2591362;22;20912;-62
2023/09/15 00:25:27;;;;;;;2.20;1.70;;;;;24.60;100940.00;;;;2578254;23;20196;-62
2023/09/15 00:26:29;;;;;;;1.98;1.63;;;;;24.50;100940.00;;;;2563091;23;20267;-61
2023/09/15 00:27:30;;;;;;;2.20;1.77;;;;;24.50;100941.00;;;;2549268;23;20193;-62
2023/09/15 00:28:31;;;;;;;2.17;1.93;;;;;24.50;100936.00;;;;2575872;22;20435;-62
2023/09/15 00:29:31;;;;;;;2.13;1.53;;;;;24.50;100931.00;;;;2590781;22;20849;-62
2023/09/15 00:30:32;;;;;;;2.00;1.80;;;;;24.50;100940.00;;;;2591125;22;20219;-62
2023/09/15 00:31:33;;;;;;;2.15;1.73;;;;;24.50;100922.00;;;;2576295;22;20191;-62
2023/09/15 00:32:33;;;;;;;2.27;2.07;;;;;24.50;100932.00;;;;2578374;23;20207;-61
2023/09/15 00:33:33;;;;;;;1.60;1.43;;;;;24.60;100934.00;;;;2577639;23;20688;-61
2023/09/15 00:34:33;;;;;;;2.10;1.77;;;;;24.50;100933.00;;;;2578309;23;20534;-61
2023/09/15 00:35:34;;;;;;;2.63;1.70;;;;;24.50;100940.00;;;;2577679;23;20601;-62
2023/09/15 00:36:35;;;;;;;2.30;1.70;;;;;24.50;100936.00;;;;2576763;22;20591;-62
2023/09/15 00:37:35;;;;;;;2.10;1.90;;;;;24.60;100962.00;;;;2589258;22;20438;-61
2023/09/15 00:38:36;;;;;;;1.90;1.60;;;;;24.50;100928.00;;;;2573751;23;20909;-62
2023/09/15 00:39:36;;;;;;;2.57;1.70;;;;;24.50;100934.00;;;;2577896;23;20907;-62
2023/09/15 00:40:36;;;;;;;3.40;2.73;;;;;24.60;100935.00;;;;2590924;22;20660;-62
2023/09/15 00:41:36;;;;;;;3.20;1.60;;;;;24.50;100927.00;;;;2575570;22;20633;-62
2023/09/15 00:42:37;;;;;;;2.87;1.70;;;;;24.50;100939.00;;;;2590944;22;20710;-62
2023/09/15 00:43:38;;;;;;;2.20;1.67;;;;;24.50;100935.00;;;;2591724;22;20534;-62
2023/09/15 00:44:38;;;;;;;1.93;1.60;;;;;24.50;100935.00;;;;2591129;22;20560;-61
2023/09/15 00:45:38;;;;;;;2.07;1.47;;;;;24.50;100933.00;;;;2591013;22;20686;-62
2023/09/15 00:46:39;;;;;;;2.50;2.20;;;;;24.50;100927.00;;;;2563066;23;20642;-62
2023/09/15 00:47:39;;;;;;;1.97;1.83;;;;;24.50;100828.00;;;;2564643;23;20690;-62
2023/09/15 00:48:40;;;;;;;2.30;1.80;;;;;24.50;100938.00;;;;2562664;23;21008;-61
2023/09/15 00:49:41;;;;;;;2.15;1.77;;;;;24.50;100923.00;;;;2563442;22;20221;-62
2023/09/15 00:50:42;;;;;;;2.27;1.93;;;;;24.50;100917.00;;;;2559519;22;20196;-62
2023/09/15 00:51:43;;;;;;;2.20;1.77;;;;;24.50;100933.00;;;;2563455;23;20909;-62
2023/09/15 00:52:44;;;;;;;2.23;1.90;;;;;24.50;100918.00;;;;2565105;23;21123;-61
2023/09/15 00:53:45;;;;;;;1.70;1.60;;;;;24.50;100922.00;;;;2565112;23;20416;-61
2023/09/15 00:54:46;;;;;;;2.13;1.60;;;;;24.50;100923.00;;;;2564601;23;20204;-61
2023/09/15 00:55:47;;;;;;;2.00;1.80;;;;;24.50;100917.00;;;;2550677;23;20192;-62
2023/09/15 00:56:48;;;;;;;2.10;1.60;;;;;24.50;100919.00;;;;2561189;23;20432;-61
2023/09/15 00:57:52;;;;;;;3.50;1.70;;;;;24.50;100918.00;;;;2563813;23;20248;-62
2023/09/15 00:58:52;;;;;;;2.38;1.88;;;;;24.50;100914.00;;;;2549329;23;20201;-61
2023/09/15 00:59:53;;;;;;;2.60;2.07;;;;;24.50;100915.00;;;;2551585;23;20325;-63
2023/09/15 01:00:53;;;;;;;2.20;2.00;;;;;24.50;100920.00;;;;2537404;23;20610;-62
2023/09/15 01:01:53;;;;;;;2.33;1.67;;;;;24.50;100920.00;;;;2552141;23;20256;-62
2023/09/15 01:02:54;;;;;;;2.13;1.93;;;;;23.90;100912.00;;;;2577169;23;20203;-61
2023/09/15 01:03:54;;;;;;;1.73;1.63;;;;;24.50;100913.00;;;;2564923;23;21741;-64
2023/09/15 01:04:55;;;;;;;2.10;1.90;;;;;24.50;100914.00;;;;2551880;23;20197;-64
2023/09/15 01:05:55;;;;;;;2.87;1.73;;;;;24.50;100908.00;;;;2560569;23;20643;-64
2023/09/15 01:06:56;;;;;;;1.87;1.50;;;;;24.50;100911.00;;;;2577544;23;20698;-63
2023/09/15 01:07:56;;;;;;;1.93;1.67;;;;;24.50;100908.00;;;;2552220;23;20217;-62
2023/09/15 01:08:57;;;;;;;1.83;1.57;;;;;24.50;100902.00;;;;2564227;22;20528;-62
2023/09/15 01:09:57;;;;;;;1.63;1.50;;;;;24.50;100898.00;;;;2590550;22;20211;-62
2023/09/15 01:11:01;;;;;;;1.87;1.67;;;;;24.50;100908.00;;;;2562914;22;20206;-62
2023/09/15 01:12:01;;;;;;;2.40;1.60;;;;;24.50;100903.00;;;;2577615;22;20232;-62
2023/09/15 01:13:02;;;;;;;2.20;1.90;;;;;24.50;100908.00;;;;2590077;22;20518;-62
2023/09/15 01:14:02;;;;;;;2.20;1.73;;;;;24.50;100908.00;;;;2575554;23;20268;-62
2023/09/15 01:15:03;;;;;;;2.03;1.73;;;;;24.50;100901.00;;;;2564741;23;20482;-62
2023/09/15 01:16:11;;;;;;;1.80;1.53;;;;;24.50;100896.00;;;;2550066;23;20220;-62
2023/09/15 01:17:15;;;;;;;1.75;1.48;;;;;24.50;100903.00;;;;2551041;23;20296;-62
2023/09/15 01:18:18;;;;;;;1.70;1.17;;;;;24.50;100906.00;;;;2536963;23;20207;-62
2023/09/15 01:19:31;;;;;;;2.17;1.80;;;;;24.50;100915.00;;;;2564377;22;20228;-62
2023/09/15 01:20:46;;;;;;;1.70;1.40;;;;;24.50;100893.00;;;;2574641;22;20254;-62
2023/09/15 01:21:52;;;;;;;2.10;1.80;;;;;24.50;100900.00;;;;2579358;22;20203;-62
2023/09/15 01:22:55;;;;;;;1.67;1.58;;;;;24.50;100902.00;;;;2574613;23;20196;-62
2023/09/15 01:24:29;;;;;;;1.70;1.60;;;;;24.50;100895.00;;;;2577490;22;20196;-62
2023/09/15 01:25:35;;;;;;;2.15;1.60;;;;;24.50;100895.00;;;;2574043;23;20427;-62
2023/09/15 01:26:59;;;;;;;2.28;1.80;;;;;24.50;100897.00;;;;2562640;22;20203;-62
2023/09/15 01:28:36;;;;;;;2.13;1.90;;;;;24.50;100888.00;;;;2563638;23;20271;-62
2023/09/15 01:29:56;;;;;;;2.08;1.48;;;;;24.50;100894.00;;;;2582618;22;20187;-62
2023/09/15 01:30:56;;;;;;;2.50;2.00;;;;;24.50;100885.00;;;;2558150;22;20195;-62
2023/09/15 01:31:57;;;;;;;2.63;1.53;;;;;24.50;100879.00;;;;2562709;23;21702;-64
2023/09/15 01:32:57;;;;;;;1.87;1.40;;;;;24.50;100872.00;;;;2552562;23;20194;-63
2023/09/15 01:33:58;;;;;;;2.13;1.70;;;;;24.50;100691.00;;;;2564140;23;20251;-63
2023/09/15 01:34:58;;;;;;;2.10;1.80;;;;;24.50;100882.00;;;;2565698;23;20551;-63
2023/09/15 01:35:59;;;;;;;1.60;1.50;;;;;24.50;100890.00;;;;2537004;23;20248;-62
2023/09/15 01:36:59;;;;;;;3.22;1.70;;;;;24.50;100885.00;;;;2565529;22;20204;-62
2023/09/15 01:38:00;;;;;;;1.93;1.67;;;;;24.50;100886.00;;;;2590507;22;20191;-62
2023/09/15 01:39:00;;;;;;;1.70;1.53;;;;;24.50;100885.00;;;;2590175;22;20199;-62
2023/09/15 01:40:01;;;;;;;1.77;1.30;;;;;24.50;100880.00;;;;2587615;22;20202;-62
2023/09/15 01:41:01;;;;;;;2.67;2.10;;;;;24.50;100880.00;;;;2574900;22;20203;-61
2023/09/15 01:42:02;;;;;;;1.40;1.30;;;;;24.50;100873.00;;;;2591343;22;20248;-62
2023/09/15 01:43:02;;;;;;;2.07;1.87;;;;;24.50;100873.00;;;;2590882;22;20196;-62
2023/09/15 01:44:03;;;;;;;1.80;1.37;;;;;24.50;100882.00;;;;2591227;22;20195;-62
2023/09/15 01:45:03;;;;;;;2.17;1.80;;;;;24.50;100888.00;;;;2588401;22;20910;-62
2023/09/15 01:46:04;;;;;;;1.70;1.60;;;;;24.50;100877.00;;;;2573682;22;20199;-62
2023/09/15 01:47:08;;;;;;;2.63;1.63;;;;;24.50;100880.00;;;;2574449;23;20246;-62
2023/09/15 01:48:08;;;;;;;2.75;1.80;;;;;24.50;100882.00;;;;2578033;22;20200;-62
2023/09/15 01:49:09;;;;;;;1.97;1.77;;;;;24.50;100877.00;;;;2589826;22;20191;-62
2023/09/15 01:50:09;;;;;;;1.80;1.60;;;;;24.50;100880.00;;;;2577153;23;20188;-62
2023/09/15 01:51:09;;;;;;;2.20;1.70;;;;;24.50;100885.00;;;;2550665;23;20207;-62
2023/09/15 01:52:10;;;;;;;1.97;1.63;;;;;24.50;100876.00;;;;2563200;23;20197;-62
2023/09/15 01:53:10;;;;;;;2.37;1.80;;;;;24.50;100895.00;;;;2547112;23;20190;-62
2023/09/15 01:54:11;;;;;;;4.80;1.83;;;;;24.50;100890.00;;;;2551399;23;20943;-61
2023/09/15 01:55:11;;;;;;;1.83;1.40;;;;;24.50;100890.00;;;;2574000;23;20753;-62
2023/09/15 01:56:13;;;;;;;2.00;1.80;;;;;24.50;100889.00;;;;2562759;23;20279;-62
2023/09/15 01:57:14;;;;;;;2.17;1.63;;;;;24.50;100880.00;;;;2576779;22;20759;-62
2023/09/15 01:58:14;;;;;;;1.73;1.60;;;;;24.50;100895.00;;;;2577279;23;20271;-62
2023/09/15 01:59:15;;;;;;;3.10;1.87;;;;;24.50;100886.00;;;;2575693;23;20244;-62
2023/09/15 02:00:16;;;;;;;1.93;1.73;;;;;24.50;100897.00;;;;2577526;23;20323;-62
2023/09/15 02:01:16;;;;;;;1.90;1.70;;;;;24.50;100891.00;;;;2560672;22;20200;-62
2023/09/15 02:02:17;;;;;;;1.80;1.70;;;;;24.40;100894.00;;;;2576902;23;20279;-62
2023/09/15 02:03:17;;;;;;;1.83;1.60;;;;;24.50;100896.00;;;;2575648;23;20251;-62
2023/09/15 02:04:17;;;;;;;1.53;1.30;;;;;24.40;100889.00;;;;2588163;22;20195;-62
2023/09/15 02:05:22;;;;;;;2.87;2.00;;;;;24.40;100892.00;;;;2590464;22;20199;-62
2023/09/15 02:06:22;;;;;;;2.20;1.80;;;;;24.50;100895.00;;;;2575368;22;20689;-62
2023/09/15 02:07:22;;;;;;;2.10;1.73;;;;;24.50;100893.00;;;;2588197;22;20426;-62
2023/09/15 02:08:23;;;;;;;2.00;1.60;;;;;24.40;100899.00;;;;2588393;22;20195;-62
2023/09/15 02:09:23;;;;;;;1.70;1.33;;;;;24.50;100895.00;;;;2588722;22;20279;-62
2023/09/15 02:10:23;;;;;;;2.30;1.90;;;;;24.40;100891.00;;;;2590587;22;20225;-62
2023/09/15 02:11:24;;;;;;;1.60;1.50;;;;;24.40;100892.00;;;;2575311;22;20202;-62
2023/09/15 02:12:24;;;;;;;1.73;1.53;;;;;24.50;100894.00;;;;2588668;22;20195;-62
2023/09/15 02:13:24;;;;;;;2.40;1.90;;;;;24.40;100882.00;;;;2587718;22;20225;-62
2023/09/15 02:14:26;;;;;;;2.20;2.00;;;;;24.40;100896.00;;;;2574423;23;20275;-62
2023/09/15 02:15:26;;;;;;;1.70;1.40;;;;;24.50;100895.00;;;;2577175;22;20192;-62
2023/09/15 02:16:28;;;;;;;2.07;1.87;;;;;24.40;100889.00;;;;2575194;22;20245;-62
2023/09/15 02:17:30;;;;;;;2.20;2.00;;;;;24.40;100891.00;;;;2590516;22;20187;-62
2023/09/15 02:18:30;;;;;;;2.10;1.73;;;;;24.40;100893.00;;;;2575756;23;20184;-62
2023/09/15 02:19:30;;;;;;;2.00;1.63;;;;;24.40;100889.00;;;;2562026;23;20651;-62
2023/09/15 02:20:31;;;;;;;1.57;1.43;;;;;24.40;100889.00;;;;2573533;22;20958;-62
2023/09/15 02:21:31;;;;;;;1.70;1.57;;;;;24.40;100886.00;;;;2573038;22;20282;-62
2023/09/15 02:22:32;;;;;;;1.90;1.53;;;;;24.40;100897.00;;;;2589192;22;20963;-67
2023/09/15 02:23:32;;;;;;;2.27;2.00;;;;;24.40;100878.00;;;;2587160;22;20195;-63
2023/09/15 02:24:33;;;;;;;1.77;1.53;;;;;24.40;100883.00;;;;2574956;23;20196;-63
2023/09/15 02:25:35;;;;;;;1.90;1.70;;;;;24.40;100887.00;;;;2574215;23;20201;-63
2023/09/15 02:26:36;;;;;;;2.25;1.70;;;;;24.40;100888.00;;;;2575075;22;20770;-62
2023/09/15 02:27:37;;;;;;;1.67;1.53;;;;;24.40;100865.00;;;;2575624;23;20192;-62
2023/09/15 02:28:37;;;;;;;2.20;2.00;;;;;24.40;100885.00;;;;2563476;23;20197;-62
2023/09/15 02:29:38;;;;;;;2.40;2.00;;;;;24.40;100874.00;;;;2560504;23;20255;-62
2023/09/15 02:30:39;;;;;;;1.63;1.40;;;;;24.40;100879.00;;;;2569953;22;20192;-62
2023/09/15 02:31:40;;;;;;;1.80;1.60;;;;;24.40;100879.00;;;;2562535;23;20224;-62
2023/09/15 02:32:40;;;;;;;2.15;1.77;;;;;24.40;100884.00;;;;2576550;22;20212;-62
2023/09/15 02:33:40;;;;;;;1.57;1.47;;;;;24.40;100875.00;;;;2590404;22;20679;-62
2023/09/15 02:34:41;;;;;;;1.87;1.67;;;;;24.40;100885.00;;;;2589437;22;20715;-62
2023/09/15 02:35:41;;;;;;;2.73;1.73;;;;;24.40;100917.00;;;;2578151;22;20191;-63
2023/09/15 02:36:42;;;;;;;2.57;1.80;;;;;24.40;100880.00;;;;2590573;22;20207;-62
2023/09/15 02:37:42;;;;;;;2.73;1.90;;;;;24.40;100871.00;;;;2576171;23;20573;-62
2023/09/15 02:38:42;;;;;;;1.80;1.60;;;;;24.40;100878.00;;;;2560469;23;20239;-62
2023/09/15 02:39:43;;;;;;;2.10;1.63;;;;;24.40;100883.00;;;;2577112;23;20254;-62
2023/09/15 02:40:43;;;;;;;1.87;1.53;;;;;24.40;100867.00;;;;2575195;22;20199;-62
2023/09/15 02:41:43;;;;;;;2.43;1.97;;;;;24.40;100877.00;;;;2587524;22;20241;-62
2023/09/15 02:42:44;;;;;;;1.50;1.40;;;;;24.40;100863.00;;;;2590272;22;20199;-62
2023/09/15 02:43:45;;;;;;;2.07;1.83;;;;;24.40;100875.00;;;;2577180;23;20226;-62
2023/09/15 02:44:45;;;;;;;1.80;1.38;;;;;24.40;100855.00;;;;2565026;22;20353;-62
2023/09/15 02:45:46;;;;;;;1.70;1.47;;;;;24.40;100878.00;;;;2563174;23;20522;-62
2023/09/15 02:46:46;;;;;;;2.30;1.70;;;;;24.40;100870.00;;;;2590288;22;20529;-62
2023/09/15 02:47:46;;;;;;;2.30;2.00;;;;;24.40;100870.00;;;;2590847;22;20562;-61
2023/09/15 02:48:47;;;;;;;2.00;1.60;;;;;24.40;100875.00;;;;2589246;22;20192;-61
2023/09/15 02:49:47;;;;;;;1.90;1.50;;;;;24.40;100869.00;;;;2590308;22;20211;-62
2023/09/15 02:50:47;;;;;;;1.97;1.73;;;;;24.40;100877.00;;;;2560905;22;20200;-62
2023/09/15 02:51:48;;;;;;;2.10;1.60;;;;;24.40;100881.00;;;;2563650;23;20239;-62
2023/09/15 02:52:48;;;;;;;2.20;1.60;;;;;24.40;100870.00;;;;2577092;23;20227;-62
2023/09/15 02:53:48;;;;;;;1.70;1.60;;;;;24.40;100872.00;;;;2589879;22;20195;-62
2023/09/15 02:54:49;;;;;;;2.57;1.70;;;;;24.40;100871.00;;;;2587729;22;20192;-62
2023/09/15 02:55:59;;;;;;;2.20;1.70;;;;;24.40;100863.00;;;;2561977;23;20923;-62
2023/09/15 02:57:00;;;;;;;1.70;1.60;;;;;24.40;100865.00;;;;2565919;23;20204;-61
2023/09/15 02:58:00;;;;;;;2.07;1.77;;;;;24.40;100877.00;;;;2564991;23;20197;-62
2023/09/15 02:59:00;;;;;;;1.93;1.53;;;;;24.40;100895.00;;;;2576996;23;20192;-62
2023/09/15 03:00:01;;;;;;;1.70;1.57;;;;;24.40;100879.00;;;;2590640;22;20195;-62
2023/09/15 03:01:11;;;;;;;1.77;1.60;;;;;24.40;100867.00;;;;2575894;22;20610;-62
2023/09/15 03:02:12;;;;;;;2.27;2.00;;;;;24.40;100860.00;;;;2590649;22;20195;-62
2023/09/15 03:03:13;;;;;;;1.75;1.65;;;;;24.40;100864.00;;;;2588084;22;21197;-62
2023/09/15 03:04:13;;;;;;;1.70;1.60;;;;;24.40;100864.00;;;;2564960;23;20196;-62
2023/09/15 03:05:13;;;;;;;1.90;1.70;;;;;24.40;100869.00;;;;2571752;23;20195;-62
2023/09/15 03:06:14;;;;;;;2.03;1.87;;;;;24.40;100703.00;;;;2562953;23;20226;-62
2023/09/15 03:07:15;;;;;;;1.93;1.53;;;;;24.40;100865.00;;;;2576850;23;20857;-62
2023/09/15 03:08:15;;;;;;;1.83;1.50;;;;;24.40;100868.00;;;;2576954;23;20226;-62
2023/09/15 03:09:15;;;;;;;1.70;1.30;;;;;24.40;100864.00;;;;2558876;23;20235;-62
2023/09/15 03:10:16;;;;;;;1.50;1.40;;;;;24.40;100868.00;;;;2565280;23;20221;-62
2023/09/15 03:11:19;;;;;;;1.80;1.60;;;;;24.40;100859.00;;;;2562866;22;20207;-62
2023/09/15 03:12:19;;;;;;;2.00;1.67;;;;;24.40;100870.00;;;;2591375;22;20241;-62
2023/09/15 03:13:20;;;;;;;2.43;1.90;;;;;24.40;100861.00;;;;2578061;22;20749;-62
2023/09/15 03:14:20;;;;;;;2.23;1.60;;;;;24.40;100857.00;;;;2577906;23;20204;-62
2023/09/15 03:15:20;;;;;;;1.70;1.50;;;;;24.40;100855.00;;;;2592079;22;20222;-61
2023/09/15 03:16:23;;;;;;;1.67;1.50;;;;;24.40;100846.00;;;;2576571;22;20199;-62
2023/09/15 03:17:23;;;;;;;1.73;1.48;;;;;24.40;100855.00;;;;2590862;22;20207;-62
2023/09/15 03:18:23;;;;;;;1.50;1.40;;;;;24.40;100855.00;;;;2577193;23;20196;-61
2023/09/15 03:19:24;;;;;;;2.20;1.90;;;;;24.40;100847.00;;;;2578718;23;20196;-62
2023/09/15 03:20:24;;;;;;;2.17;1.70;;;;;24.40;100861.00;;;;2578304;22;20258;-62
2023/09/15 03:21:25;;;;;;;1.93;1.43;;;;;24.40;100846.00;;;;2563407;23;20275;-62
2023/09/15 03:22:27;;;;;;;2.10;1.87;;;;;24.40;100849.00;;;;2562733;23;20228;-62
2023/09/15 03:23:27;;;;;;;1.55;1.30;;;;;24.40;100851.00;;;;2563120;22;20225;-62
2023/09/15 03:24:27;;;;;;;1.93;1.60;;;;;24.40;100851.00;;;;2592043;22;20225;-62
2023/09/15 03:25:28;;;;;;;1.63;1.43;;;;;24.40;100856.00;;;;2591116;22;20261;-61
2023/09/15 03:26:28;;;;;;;2.00;1.80;;;;;24.40;100843.00;;;;2562192;23;20196;-62
2023/09/15 03:27:29;;;;;;;1.67;1.50;;;;;24.40;100851.00;;;;2578060;23;20278;-62
2023/09/15 03:28:31;;;;;;;1.83;1.50;;;;;24.40;100852.00;;;;2591069;22;20278;-62
2023/09/15 03:29:31;;;;;;;1.58;1.30;;;;;24.40;100851.00;;;;2590497;22;20675;-62
2023/09/15 03:30:32;;;;;;;1.93;1.47;;;;;24.40;100855.00;;;;2591017;22;20191;-62
2023/09/15 03:31:32;;;;;;;2.40;1.50;;;;;24.40;100849.00;;;;2577235;22;20195;-62
2023/09/15 03:32:32;;;;;;;2.03;1.83;;;;;24.40;100856.00;;;;2590477;22;20698;-62
2023/09/15 03:33:33;;;;;;;2.63;1.70;;;;;24.40;100849.00;;;;2592132;22;20196;-62
2023/09/15 03:34:38;;;;;;;2.83;1.60;;;;;24.40;100855.00;;;;2591416;22;20195;-62
2023/09/15 03:35:38;;;;;;;2.10;1.60;;;;;24.30;100848.00;;;;2591619;22;20245;-62
2023/09/15 03:36:38;;;;;;;2.37;1.70;;;;;24.30;100847.00;;;;2551269;23;20481;-62
2023/09/15 03:37:39;;;;;;;1.70;1.60;;;;;24.40;100847.00;;;;2562181;23;20247;-62
2023/09/15 03:38:40;;;;;;;2.53;1.80;;;;;24.30;100843.00;;;;2564749;23;20207;-61
2023/09/15 03:39:41;;;;;;;2.10;1.60;;;;;24.30;100836.00;;;;2565257;22;20243;-63
2023/09/15 03:40:41;;;;;;;2.40;1.50;;;;;24.30;100847.00;;;;2563916;22;20509;-62
2023/09/15 03:41:42;;;;;;;1.87;1.67;;;;;24.30;100836.00;;;;2552346;23;20261;-63
2023/09/15 03:42:43;;;;;;;1.85;1.58;;;;;24.40;100852.00;;;;2553874;23;20702;-62
2023/09/15 03:43:43;;;;;;;2.30;1.40;;;;;24.40;100838.00;;;;2578309;22;20192;-62
2023/09/15 03:44:44;;;;;;;1.70;1.30;;;;;24.40;100845.00;;;;2590918;22;20241;-62
2023/09/15 03:45:45;;;;;;;1.80;1.50;;;;;24.30;100834.00;;;;2574225;22;20219;-62
2023/09/15 03:46:46;;;;;;;1.77;1.60;;;;;24.30;100844.00;;;;2577969;23;20196;-62
2023/09/15 03:47:46;;;;;;;2.13;1.60;;;;;24.40;100847.00;;;;2578382;23;20184;-63
2023/09/15 03:48:46;;;;;;;2.17;1.30;;;;;24.30;100837.00;;;;2590211;22;20184;-62
2023/09/15 03:49:47;;;;;;;1.73;1.43;;;;;24.30;100834.00;;;;2590810;22;20192;-62
2023/09/15 03:50:47;;;;;;;2.00;1.60;;;;;24.30;100829.00;;;;2576394;22;20196;-62
2023/09/15 03:51:47;;;;;;;1.63;1.37;;;;;24.30;100845.00;;;;2578103;23;20766;-63
2023/09/15 03:52:48;;;;;;;1.83;1.53;;;;;24.40;100833.00;;;;2565837;23;20212;-62
2023/09/15 03:53:48;;;;;;;2.13;1.60;;;;;24.30;100837.00;;;;2565229;23;20196;-62
2023/09/15 03:54:48;;;;;;;2.00;1.60;;;;;24.40;100834.00;;;;2576900;23;20646;-62
2023/09/15 03:55:49;;;;;;;1.80;1.57;;;;;24.30;100833.00;;;;2576765;22;20238;-62
2023/09/15 03:56:49;;;;;;;1.60;1.47;;;;;24.30;100827.00;;;;2591841;22;20199;-62
2023/09/15 03:57:49;;;;;;;1.70;1.60;;;;;24.30;100826.00;;;;2577522;23;20226;-62
2023/09/15 03:58:51;;;;;;;1.63;1.23;;;;;24.30;100829.00;;;;2575805;23;20254;-62
2023/09/15 03:59:51;;;;;;;1.85;1.52;;;;;24.30;100830.00;;;;2578659;23;20282;-62
2023/09/15 04:00:52;;;;;;;2.53;1.37;;;;;24.30;100827.00;;;;2550947;23;20196;-61
2023/09/15 04:01:52;;;;;;;1.70;1.50;;;;;24.30;100830.00;;;;2578486;23;20708;-61
2023/09/15 04:02:53;;;;;;;1.83;1.47;;;;;24.30;100828.00;;;;2591658;22;20226;-62
2023/09/15 04:03:53;;;;;;;3.00;1.70;;;;;24.30;100845.00;;;;2574900;23;20698;-62
2023/09/15 04:04:53;;;;;;;2.43;1.50;;;;;24.30;100826.00;;;;2577850;23;20192;-62
2023/09/15 04:05:54;;;;;;;1.50;1.27;;;;;24.30;100797.00;;;;2575589;22;20535;-62
2023/09/15 04:06:54;;;;;;;1.80;1.57;;;;;24.30;100828.00;;;;2573876;23;20188;-62
2023/09/15 04:07:56;;;;;;;1.87;1.50;;;;;24.30;100821.00;;;;2574300;23;20189;-62
2023/09/15 04:08:57;;;;;;;2.03;1.35;;;;;24.30;100832.00;;;;2575776;23;20235;-62
2023/09/15 04:09:57;;;;;;;2.00;1.70;;;;;24.30;100828.00;;;;2578111;22;20220;-62
2023/09/15 04:10:58;;;;;;;1.77;1.50;;;;;24.30;100823.00;;;;2571944;22;20638;-61
2023/09/15 04:11:58;;;;;;;1.67;1.40;;;;;24.30;100825.00;;;;2591550;22;20206;-62
2023/09/15 04:12:58;;;;;;;1.50;1.40;;;;;24.30;100832.00;;;;2591301;22;20195;-62
2023/09/15 04:13:59;;;;;;;1.77;1.30;;;;;24.30;100834.00;;;;2590544;22;20241;-62
2023/09/15 04:14:59;;;;;;;1.90;1.70;;;;;24.30;100830.00;;;;2588347;22;20223;-62
2023/09/15 04:16:00;;;;;;;1.60;1.43;;;;;24.30;100836.00;;;;2576276;22;20255;-61
2023/09/15 04:17:03;;;;;;;1.80;1.60;;;;;24.30;100833.00;;;;2591646;22;21059;-62
2023/09/15 04:18:08;;;;;;;1.58;1.40;;;;;24.30;100839.00;;;;2574309;23;20710;-62
2023/09/15 04:19:08;;;;;;;2.35;1.80;;;;;24.30;100833.00;;;;2575853;22;20188;-62
2023/09/15 04:20:09;;;;;;;2.10;1.40;;;;;24.30;100827.00;;;;2591639;22;20271;-62
2023/09/15 04:21:10;;;;;;;2.03;1.70;;;;;24.30;100835.00;;;;2562304;22;20196;-62
2023/09/15 04:22:10;;;;;;;2.20;1.30;;;;;24.30;100839.00;;;;2578377;22;20218;-62
2023/09/15 04:23:11;;;;;;;2.10;1.23;;;;;24.30;100835.00;;;;2589209;22;20199;-62
2023/09/15 04:24:12;;;;;;;1.90;1.70;;;;;24.30;100836.00;;;;2574173;22;20212;-62
2023/09/15 04:25:12;;;;;;;1.90;1.50;;;;;24.30;100843.00;;;;2565253;23;20569;-62
2023/09/15 04:26:13;;;;;;;1.67;1.37;;;;;24.30;100839.00;;;;2563044;22;20200;-62
2023/09/15 04:27:13;;;;;;;2.30;1.80;;;;;24.30;100834.00;;;;2588393;22;20454;-62
2023/09/15 04:28:13;;;;;;;2.20;1.53;;;;;24.30;100833.00;;;;2589061;22;20199;-61
2023/09/15 04:29:14;;;;;;;1.87;1.67;;;;;24.30;100831.00;;;;2590953;22;20203;-62
2023/09/15 04:30:14;;;;;;;2.43;1.53;;;;;24.30;100836.00;;;;2590419;22;20682;-61
2023/09/15 04:31:14;;;;;;;2.03;1.50;;;;;24.30;100836.00;;;;2575264;22;20208;-66
2023/09/15 04:32:15;;;;;;;4.30;1.33;;;;;24.30;100846.00;;;;2590945;22;20197;-63
2023/09/15 04:33:16;;;;;;;1.70;1.40;;;;;24.30;100838.00;;;;2590784;22;20192;-62
2023/09/15 04:34:16;;;;;;;2.40;1.73;;;;;24.30;100843.00;;;;2591195;22;20199;-62
2023/09/15 04:35:17;;;;;;;1.53;1.33;;;;;24.30;100843.00;;;;2576896;23;20196;-62
2023/09/15 04:36:17;;;;;;;1.80;1.50;;;;;24.30;100836.00;;;;2563106;22;20264;-62
2023/09/15 04:37:20;;;;;;;1.40;1.30;;;;;24.30;100839.00;;;;2589690;22;20845;-62
2023/09/15 04:38:21;;;;;;;1.73;1.30;;;;;24.30;100834.00;;;;2588087;22;20195;-62
2023/09/15 04:39:21;;;;;;;1.83;1.40;;;;;24.30;100830.00;;;;2576927;23;20207;-62
2023/09/15 04:40:22;;;;;;;1.60;1.27;;;;;24.30;100838.00;;;;2562307;23;20203;-62
2023/09/15 04:41:22;;;;;;;2.17;1.43;;;;;24.30;100904.00;;;;2550196;23;20201;-62
2023/09/15 04:42:22;;;;;;;2.00;1.57;;;;;24.30;100836.00;;;;2577371;23;20662;-62
2023/09/15 04:43:23;;;;;;;1.70;1.33;;;;;24.30;100831.00;;;;2577069;23;20681;-62
2023/09/15 04:44:23;;;;;;;1.60;1.30;;;;;24.30;100846.00;;;;2575120;22;20682;-62
2023/09/15 04:45:24;;;;;;;1.70;1.30;;;;;24.30;100830.00;;;;2590907;22;20835;-62
2023/09/15 04:46:24;;;;;;;2.87;1.60;;;;;24.30;100833.00;;;;2572653;22;20238;-62
2023/09/15 04:47:32;;;;;;;1.80;1.30;;;;;24.30;100827.00;;;;2590597;22;20215;-62
2023/09/15 04:48:33;;;;;;;2.15;1.60;;;;;24.30;100828.00;;;;2574778;23;20219;-61
2023/09/15 04:49:33;;;;;;;1.80;1.60;;;;;24.30;100832.00;;;;2565405;23;20650;-62
2023/09/15 04:50:36;;;;;;;1.77;1.57;;;;;24.30;100823.00;;;;2576040;22;20582;-62
2023/09/15 04:51:36;;;;;;;2.25;1.88;;;;;24.30;100831.00;;;;2575291;22;20274;-61
2023/09/15 04:52:37;;;;;;;1.70;1.40;;;;;24.30;100824.00;;;;2573665;23;20678;-62
2023/09/15 04:53:37;;;;;;;2.00;1.47;;;;;24.30;100836.00;;;;2571871;23;20538;-62
2023/09/15 04:54:37;;;;;;;1.53;1.30;;;;;24.30;100827.00;;;;2575958;23;20258;-62
2023/09/15 04:55:38;;;;;;;1.63;1.40;;;;;24.30;100825.00;;;;2574327;23;20192;-61
2023/09/15 04:56:38;;;;;;;2.33;1.63;;;;;24.30;100835.00;;;;2575601;22;20290;-62
2023/09/15 04:57:38;;;;;;;2.00;1.30;;;;;24.30;100827.00;;;;2588832;22;20218;-62
2023/09/15 04:58:39;;;;;;;2.03;1.57;;;;;24.30;100828.00;;;;2589380;22;20253;-61
2023/09/15 04:59:39;;;;;;;2.03;1.60;;;;;24.30;100824.00;;;;2591064;22;20689;-61
2023/09/15 05:00:40;;;;;;;1.43;1.13;;;;;24.30;100833.00;;;;2585795;22;20248;-68
2023/09/15 05:01:48;;;;;;;1.70;1.50;;;;;24.30;100829.00;;;;2585796;22;20191;-62
2023/09/15 05:02:49;;;;;;;1.65;1.50;;;;;24.20;100832.00;;;;2588951;22;20526;-63
2023/09/15 05:03:49;;;;;;;1.57;1.33;;;;;24.30;100835.00;;;;2590170;22;20214;-63